Main page
METAR-TAF:

METAR-TAF

Airports :

Minorca, Spain

Menorca Airport

latitude: 39-52N, longitude: 004-14E, elevation: 87 m

Current weather observation

The report was made 10 minutes ago, at 04:30 UTC
Calm wind
Temperature 13°C
Humidity 88%
Pressure 1012 hPa
Visibility 10 km or more
no clouds below 1500 m and no cumulonimbus

METAR: LEMH 270430Z 00000KT CAVOK 13/11 Q1012

Time: 06:40 (04:40 UTC)

Forecast

The report was made 2 hours and 40 minutes ago, at 02:00 UTC
Forecast valid from 27 at 03 UTC to 28 at 03 UTC
Wind 8 kt from the North
Visibility 10 km or more
Few clouds at a height of 4000 ft
Temporary
from 27 at 03 UTC to 27 at 10 UTC
Wind 6 kt from the Northwest
Becoming
from 27 at 10 UTC to 27 at 12 UTC
Wind 7 kt from the South/Southwest

TAF: LEMH 270200Z 2703/2803 36008KT 9999 FEW040 TX20/2712Z TN13/2706Z TEMPO 2703/2710 32006KT BECMG 2710/2712 21007KT

Weather observations and forecasts of more than 4000 airports (METAR and TAF reports).

The available stations are represented by yellow and red dots on the map.

Hover mouse over dot to see the name of the station.

Then click to see weather observations and forecasts.

To change the map : click on the green buttons with a black cross to zoom in, on the green button with a dash to zoom out, or on the green arrows for adjacent maps.


METAR-TAF: